Time;durP1;ratioP1;P1;durP2;ratioP2;P2;SDS_P1;SDS_P2;PMS_P1;PMS_P2;Temp;Humidity;BMP_temperature;BMP_pressure;BME280_temperature;BME280_humidity;BME280_pressure;Samples;Min_cycle;Max_cycle;Signal;HPM_P1;HPM_P2
2024/02/11 00:01:55;;;;;;;20.48;12.57;;;;;;;9.34;100.00;97529.81;5023519;28;20041;-74
2024/02/11 00:04:24;;;;;;;19.50;13.90;;;;;;;9.34;100.00;97535.09;5023107;28;20041;-74
2024/02/11 00:06:52;;;;;;;18.67;13.43;;;;;;;9.23;100.00;97527.28;5023615;28;20045;-76
2024/02/11 00:09:21;;;;;;;19.25;13.05;;;;;;;9.35;100.00;97549.97;5029269;28;20526;-74
2024/02/11 00:11:49;;;;;;;18.77;12.88;;;;;;;9.21;100.00;97534.50;5009152;28;20045;-74
2024/02/11 00:14:19;;;;;;;21.80;14.70;;;;;;;9.30;100.00;97549.53;5025792;28;20563;-75
2024/02/11 00:16:49;;;;;;;22.27;13.95;;;;;;;9.12;100.00;97524.75;5026252;28;20053;-73
2024/02/11 00:19:18;;;;;;;21.27;13.57;;;;;;;9.28;100.00;97551.50;5031568;28;20061;-75
2024/02/11 00:21:49;;;;;;;20.13;13.00;;;;;;;9.32;100.00;97552.88;5017386;28;20577;-73
2024/02/11 00:24:19;;;;;;;20.10;13.38;;;;;;;9.33;100.00;97557.19;5022359;28;20064;-78
2024/02/11 00:26:47;;;;;;;17.33;13.05;;;;;;;9.35;100.00;97552.63;5026565;28;20052;-73
2024/02/11 00:29:17;;;;;;;20.08;13.63;;;;;;;9.32;100.00;97541.47;5036580;28;20797;-75
2024/02/11 00:31:47;;;;;;;18.58;13.35;;;;;;;9.44;100.00;97549.16;5033931;28;20152;-74
2024/02/11 00:34:15;;;;;;;20.33;13.00;;;;;;;9.37;100.00;97531.34;5029954;28;20123;-76
2024/02/11 00:36:43;;;;;;;22.52;14.35;;;;;;;9.33;100.00;97525.50;5037319;28;20109;-72
2024/02/11 00:39:12;;;;;;;23.13;13.77;;;;;;;9.43;100.00;97555.44;5050069;28;20029;-73
2024/02/11 00:41:41;;;;;;;23.50;14.52;;;;;;;9.39;100.00;97561.13;5062068;28;20184;-74
2024/02/11 00:44:10;;;;;;;24.92;14.27;;;;;;;9.31;100.00;97553.00;5040076;28;20060;-74
2024/02/11 00:46:38;;;;;;;21.45;13.57;;;;;;;9.29;100.00;97558.41;5035139;28;20415;-74
2024/02/11 00:49:08;;;;;;;19.38;12.82;;;;;;;9.33;100.00;97578.31;5031370;28;20404;-73
2024/02/11 00:51:37;;;;;;;17.65;12.35;;;;;;;9.31;100.00;97567.03;5027393;28;20158;-77
2024/02/11 00:54:04;;;;;;;15.57;11.18;;;;;;;9.32;100.00;97566.06;5043429;28;20526;-74
2024/02/11 00:56:33;;;;;;;17.55;11.07;;;;;;;9.40;100.00;97582.09;5021345;28;20038;-75
2024/02/11 00:59:01;;;;;;;14.60;10.55;;;;;;;9.41;100.00;97578.50;5028504;28;20495;-75
2024/02/11 01:01:29;;;;;;;14.40;9.90;;;;;;;9.36;100.00;97564.84;5022558;28;20133;-74
2024/02/11 01:03:57;;;;;;;13.18;9.35;;;;;;;9.43;100.00;97579.22;5023871;28;20143;-75
2024/02/11 01:06:27;;;;;;;14.18;10.20;;;;;;;9.37;100.00;97563.03;5039521;28;20076;-75
2024/02/11 01:08:55;;;;;;;13.55;9.48;;;;;;;9.33;100.00;97559.00;5029246;28;20053;-74
2024/02/11 01:11:24;;;;;;;14.73;9.15;;;;;;;9.47;100.00;97575.31;5032952;28;20125;-76
2024/02/11 01:13:52;;;;;;;11.75;8.82;;;;;;;9.54;100.00;97586.19;5022093;28;20720;-75
2024/02/11 01:16:20;;;;;;;14.88;8.88;;;;;;;9.55;100.00;97574.66;5027641;28;20053;-75
2024/02/11 01:18:48;;;;;;;11.43;9.27;;;;;;;9.64;100.00;97584.41;5030694;28;20045;-76
2024/02/11 01:21:18;;;;;;;12.38;9.52;;;;;;;9.68;100.00;97595.53;5031657;28;20053;-74
2024/02/11 01:23:48;;;;;;;12.35;8.80;;;;;;;9.61;100.00;97571.44;5038645;28;20056;-74
2024/02/11 01:26:17;;;;;;;;;;;;;;;9.72;100.00;97591.66;5060887;28;20116;-73
2024/02/11 01:28:45;;;;;;;14.27;9.02;;;;;;;9.71;100.00;97592.63;5043966;28;19966;-72
2024/02/11 01:31:13;;;;;;;11.60;8.88;;;;;;;9.62;100.00;97591.63;5044087;28;20113;-74
2024/02/11 01:33:41;;;;;;;16.05;9.93;;;;;;;9.63;100.00;97579.25;5017641;28;20037;-73
2024/02/11 01:36:11;;;;;;;11.85;9.57;;;;;;;9.69;100.00;97590.13;5046336;28;20044;-74
2024/02/11 01:38:40;;;;;;;12.63;10.07;;;;;;;9.70;100.00;97601.53;5050359;28;20041;-74
2024/02/11 01:41:12;;;;;;;14.13;10.15;;;;;;;9.67;100.00;97593.88;5047630;28;20117;-75
2024/02/11 01:43:40;;;;;;;15.48;10.27;;;;;;;9.67;100.00;97607.09;5014511;28;20119;-75
2024/02/11 01:46:08;;;;;;;15.43;10.48;;;;;;;9.62;100.00;97593.44;5018804;28;20045;-74
2024/02/11 01:48:41;;;;;;;15.30;11.02;;;;;;;9.50;100.00;97585.63;5029476;28;20109;-76
2024/02/11 01:51:10;;;;;;;13.43;10.35;;;;;;;9.45;100.00;97579.88;5028424;28;20050;-75
2024/02/11 01:53:41;;;;;;;11.25;9.45;;;;;;;9.55;100.00;97589.66;5020967;28;20050;-76
2024/02/11 01:56:11;;;;;;;13.07;10.10;;;;;;;9.54;100.00;97593.28;5024079;28;21613;-74
2024/02/11 01:58:42;;;;;;;15.33;10.80;;;;;;;9.52;100.00;97587.28;5044717;28;20117;-74
2024/02/11 02:01:11;;;;;;;15.35;10.15;;;;;;;9.59;100.00;97599.00;5045596;28;20041;-75
2024/02/11 02:03:39;;;;;;;13.63;10.52;;;;;;;9.59;100.00;97612.22;5039125;28;20091;-75
2024/02/11 02:06:08;;;;;;;15.32;10.75;;;;;;;9.53;100.00;97599.53;5026261;28;20054;-75
2024/02/11 02:08:37;;;;;;;15.98;10.80;;;;;;;9.58;100.00;97602.63;5027063;28;20084;-74
2024/02/11 02:11:09;;;;;;;12.52;10.20;;;;;;;9.57;100.00;97603.59;4999605;28;20041;-75
2024/02/11 02:13:39;;;;;;;15.70;11.48;;;;;;;9.57;100.00;97606.22;5002420;28;20045;-74
2024/02/11 02:16:08;;;;;;;15.93;11.48;;;;;;;9.52;100.00;97606.63;5009418;28;20394;-74
2024/02/11 02:18:38;;;;;;;16.27;11.70;;;;;;;9.59;100.00;97609.56;5029430;28;20041;-75
2024/02/11 02:21:09;;;;;;;17.20;11.88;;;;;;;9.58;100.00;97607.91;5031933;28;20046;-73
2024/02/11 02:23:38;;;;;;;15.10;11.80;;;;;;;9.53;100.00;97605.66;5037066;28;20048;-74
2024/02/11 02:26:08;;;;;;;17.08;12.18;;;;;;;9.28;100.00;97577.06;5025766;28;20049;-74
2024/02/11 02:28:37;;;;;;;15.00;11.95;;;;;;;9.38;100.00;97606.97;5027394;28;20395;-77
2024/02/11 02:31:07;;;;;;;16.85;12.38;;;;;;;9.22;100.00;97596.06;5010607;28;20183;-73
2024/02/11 02:33:43;;;;;;;18.00;12.73;;;;;;;9.29;100.00;97613.03;5016126;28;20042;-74
2024/02/11 02:36:17;;;;;;;17.92;12.82;;;;;;;9.32;100.00;97612.78;5033830;28;20225;-74
2024/02/11 02:38:47;;;;;;;21.42;13.25;;;;;;;9.27;100.00;97593.88;5044635;28;20088;-74
2024/02/11 02:41:16;;;;;;;19.08;14.15;;;;;;;9.32;100.00;97597.78;5037612;28;20060;-74
2024/02/11 02:43:46;;;;;;;18.27;14.10;;;;;;;9.32;100.00;97596.94;5039777;28;20046;-75
2024/02/11 02:46:15;;;;;;;18.58;14.27;;;;;;;9.38;100.00;97617.53;5035120;28;20053;-73
2024/02/11 02:48:44;;;;;;;19.73;14.68;;;;;;;9.29;100.00;97610.38;5036368;28;20038;-75
2024/02/11 02:51:12;;;;;;;21.65;15.43;;;;;;;9.33;100.00;97617.94;5037471;28;20061;-78
2024/02/11 02:53:41;;;;;;;24.02;15.98;;;;;;;9.34;100.00;97627.53;5036373;28;20045;-76
2024/02/11 02:56:10;;;;;;;22.92;16.45;;;;;;;9.32;100.00;97624.19;5027292;28;20117;-74
2024/02/11 02:58:38;;;;;;;23.55;16.35;;;;;;;9.28;100.00;97612.22;5046519;28;20363;-74
2024/02/11 03:01:06;;;;;;;21.00;16.27;;;;;;;9.35;100.00;97620.44;5035830;28;20049;-74
2024/02/11 03:03:35;;;;;;;23.10;16.80;;;;;;;9.38;100.00;97626.31;5025743;28;20059;-75
2024/02/11 03:06:04;;;;;;;21.20;16.17;;;;;;;9.41;100.00;97622.56;5021707;28;20601;-74
2024/02/11 03:08:33;;;;;;;22.58;16.75;;;;;;;9.37;100.00;97616.69;5035952;28;20049;-75
2024/02/11 03:11:04;;;;;;;20.85;16.02;;;;;;;9.39;100.00;97616.56;5038016;28;20037;-74
2024/02/11 03:13:33;;;;;;;24.00;16.95;;;;;;;9.40;100.00;97616.44;5032119;28;20049;-72
2024/02/11 03:16:02;;;;;;;23.05;15.85;;;;;;;9.38;100.00;97618.38;5034190;28;20056;-74
2024/02/11 03:18:30;;;;;;;24.27;17.77;;;;;;;9.37;100.00;97621.97;5034789;28;20068;-74
2024/02/11 03:20:59;;;;;;;21.80;16.70;;;;;;;9.29;100.00;97619.16;5034580;28;20191;-75
2024/02/11 03:23:27;;;;;;;25.80;17.85;;;;;;;9.27;100.00;97628.19;5034355;28;20038;-72
2024/02/11 03:25:57;;;;;;;26.27;18.55;;;;;;;9.21;100.00;97616.34;5077514;22;20079;-80
2024/02/11 03:28:25;;;;;;;25.57;18.10;;;;;;;9.17;100.00;97630.75;5089599;28;20056;-80
2024/02/11 03:30:56;;;;;;;25.55;18.27;;;;;;;8.81;100.00;97586.41;5083541;28;20083;-80
2024/02/11 03:33:24;;;;;;;27.33;18.33;;;;;;;8.87;100.00;97597.25;5091368;28;20066;-82
2024/02/11 03:35:53;;;;;;;27.83;18.60;;;;;;;8.83;100.00;97600.25;5085050;28;20040;-81
2024/02/11 03:38:23;;;;;;;26.98;18.13;;;;;;;8.19;100.00;97492.22;5071038;28;20060;-81
2024/02/11 03:40:53;;;;;;;26.52;18.35;;;;;;;8.76;100.00;97590.25;5052844;28;20499;-82
2024/02/11 03:43:21;;;;;;;29.17;19.95;;;;;;;9.08;100.00;97648.22;5072097;28;20128;-82
2024/02/11 03:45:50;;;;;;;26.60;18.52;;;;;;;9.03;100.00;97644.31;5049232;28;20068;-82
2024/02/11 03:48:19;;;;;;;27.85;20.05;;;;;;;8.64;100.00;97591.28;5070779;28;20123;-81
2024/02/11 03:50:48;;;;;;;28.40;19.52;;;;;;;8.72;100.00;97615.22;5079180;28;20126;-80
2024/02/11 03:53:20;;;;;;;28.67;19.55;;;;;;;8.40;100.00;97570.41;5055340;28;20124;-83
2024/02/11 03:55:49;;;;;;;27.30;18.77;;;;;;;9.03;100.00;97663.63;5076634;28;20115;-83
2024/02/11 03:58:17;;;;;;;28.42;19.27;;;;;;;7.79;100.00;97468.34;5074270;28;20056;-81
2024/02/11 04:00:45;;;;;;;27.13;19.15;;;;;;;7.63;100.00;97451.16;5067462;28;20049;-81
2024/02/11 04:03:15;;;;;;;25.70;19.63;;;;;;;8.84;100.00;97642.38;5075071;28;20065;-81
2024/02/11 04:05:48;;;;;;;25.02;17.83;;;;;;;9.04;100.00;97667.94;5083454;28;20559;-81
2024/02/11 04:08:16;;;;;;;24.98;18.10;;;;;;;9.07;100.00;97672.97;5072037;28;20048;-80
2024/02/11 04:10:44;;;;;;;23.20;17.13;;;;;;;8.71;100.00;97626.72;5051154;28;20565;-82
2024/02/11 04:13:12;;;;;;;24.52;16.65;;;;;;;8.66;100.00;97620.97;5073144;28;20044;-80
2024/02/11 04:15:41;;;;;;;22.30;16.58;;;;;;;8.99;100.00;97679.81;5084260;28;20048;-81
2024/02/11 04:18:10;;;;;;;23.30;15.65;;;;;;;9.00;100.00;97687.63;5067786;28;20469;-81
2024/02/11 04:20:39;;;;;;;23.77;15.73;;;;;;;8.68;100.00;97636.69;5074927;28;20036;-82
2024/02/11 04:23:09;;;;;;;18.98;13.20;;;;;;;7.97;100.00;97517.72;5075039;28;20044;-81
2024/02/11 04:25:41;;;;;;;17.20;12.40;;;;;;;9.06;100.00;97676.56;5067665;28;20608;-81
2024/02/11 04:28:09;;;;;;;14.35;10.20;;;;;;;9.12;100.00;97696.34;5067905;28;20047;-80
2024/02/11 04:30:42;;;;;;;13.85;9.93;;;;;;;9.13;100.00;97705.91;5068927;28;20044;-79
2024/02/11 04:33:14;;;;;;;12.98;9.13;;;;;;;9.12;100.00;97701.63;5075437;28;20048;-79
2024/02/11 04:35:46;;;;;;;8.98;6.57;;;;;;;9.12;100.00;97712.19;5062971;28;20040;-79
2024/02/11 04:38:17;;;;;;;6.85;4.93;;;;;;;9.08;100.00;97692.28;5060875;28;20056;-78
2024/02/11 04:40:45;;;;;;;5.93;3.75;;;;;;;9.21;100.00;97710.56;5067569;28;20432;-79
2024/02/11 04:43:13;;;;;;;4.22;3.38;;;;;;;8.15;100.00;97539.09;5062850;28;20127;-79
2024/02/11 04:45:42;;;;;;;2.70;1.85;;;;;;;9.17;100.00;97717.06;5068950;28;20504;-80
2024/02/11 04:48:11;;;;;;;2.40;1.40;;;;;;;8.24;100.00;97583.16;5068905;28;20067;-79
2024/02/11 04:50:39;;;;;;;1.88;1.30;;;;;;;8.61;100.00;97659.28;5068278;28;20055;-80
2024/02/11 04:53:08;;;;;;;0.80;0.80;;;;;;;8.00;100.00;97562.28;5083227;28;20052;-80
2024/02/11 04:55:43;;;;;;;0.80;0.80;;;;;;;8.85;100.00;97715.28;5081128;28;20044;-78
2024/02/11 04:58:15;;;;;;;0.93;0.70;;;;;;;8.81;100.00;97723.59;5068993;28;20101;-80
2024/02/11 05:00:47;;;;;;;0.70;0.70;;;;;;;8.08;100.00;97598.53;5065201;28;20123;-80
2024/02/11 05:03:18;;;;;;;0.82;0.80;;;;;;;8.81;100.00;97726.25;5067041;28;20059;-80
2024/02/11 05:05:49;;;;;;;0.82;0.80;;;;;;;8.65;100.00;97708.19;5064344;28;20047;-79
2024/02/11 05:08:19;;;;;;;0.90;0.90;;;;;;;8.75;100.00;97735.47;5068258;28;20123;-80
2024/02/11 05:10:51;;;;;;;0.80;0.80;;;;;;;8.52;100.00;97699.56;5071029;28;20044;-78
2024/02/11 05:13:23;;;;;;;0.80;0.80;;;;;;;8.68;100.00;97750.13;5047276;28;20783;-77
2024/02/11 05:15:53;;;;;;;1.38;0.90;;;;;;;7.68;100.00;97593.03;5061024;28;20133;-80
2024/02/11 05:18:23;;;;;;;1.40;1.15;;;;;;;8.74;100.00;97742.56;5070394;28;20044;-79
2024/02/11 05:20:56;;;;;;;2.20;1.35;;;;;;;8.65;100.00;97738.03;5062598;28;20041;-79
2024/02/11 05:23:24;;;;;;;1.40;1.30;;;;;;;8.80;100.00;97743.88;5077123;28;20803;-80
2024/02/11 05:25:57;;;;;;;1.65;1.23;;;;;;;8.68;100.00;97744.84;5060919;28;20071;-79
2024/02/11 05:28:25;;;;;;;1.40;1.30;;;;;;;8.56;100.00;97740.56;5056685;28;20583;-80
2024/02/11 05:30:55;;;;;;;2.83;1.33;;;;;;;8.75;100.00;97762.72;5070917;28;20041;-79
2024/02/11 05:33:25;;;;;;;1.38;1.27;;;;;;;8.77;100.00;97755.50;5066293;28;20115;-81
2024/02/11 05:35:54;;;;;;;2.13;1.80;;;;;;;8.67;100.00;97765.13;5046797;28;20075;-79
2024/02/11 05:38:31;;;;;;;3.17;1.65;;;;;;;8.40;100.00;97725.16;5063123;28;20052;-80
2024/02/11 05:41:04;;;;;;;2.58;1.60;;;;;;;8.49;100.00;97723.59;5065877;28;20095;-80
2024/02/11 05:43:33;;;;;;;2.30;1.45;;;;;;;7.42;100.00;97562.63;5064599;28;20538;-79
2024/02/11 05:46:06;;;;;;;2.45;1.70;;;;;;;8.57;100.00;97764.19;5063698;28;20045;-80
2024/02/11 05:48:37;;;;;;;2.58;1.85;;;;;;;8.57;100.00;97773.91;5059391;28;20052;-81
2024/02/11 05:51:06;;;;;;;1.70;1.60;;;;;;;8.28;100.00;97728.75;5048784;28;20525;-80
2024/02/11 05:53:35;;;;;;;1.73;1.45;;;;;;;8.13;100.00;97700.97;5043422;28;20411;-78
2024/02/11 05:56:07;;;;;;;3.72;1.52;;;;;;;7.72;100.00;97633.94;5066914;28;20048;-80
2024/02/11 05:58:35;;;;;;;1.50;1.40;;;;;;;8.28;100.00;97721.66;5063613;28;20060;-80
2024/02/11 06:01:04;;;;;;;1.80;1.52;;;;;;;8.65;100.00;97782.91;5061275;28;20060;-80
2024/02/11 06:03:33;;;;;;;2.65;1.40;;;;;;;8.59;100.00;97793.94;5088439;28;20052;-79
2024/02/11 06:06:00;;;;;;;2.95;1.60;;;;;;;8.48;100.00;97775.50;5082670;28;20044;-81
2024/02/11 06:08:29;;;;;;;2.08;1.40;;;;;;;8.40;100.00;97759.44;5063132;28;20048;-81
2024/02/11 06:10:58;;;;;;;2.17;1.55;;;;;;;8.30;100.00;97747.91;5066791;28;20090;-80
2024/02/11 06:13:28;;;;;;;1.80;1.38;;;;;;;8.59;100.00;97798.38;5065280;28;20044;-82
2024/02/11 06:15:56;;;;;;;1.85;1.60;;;;;;;8.57;100.00;97797.66;5063213;28;20090;-80
2024/02/11 06:18:25;;;;;;;1.50;1.40;;;;;;;8.59;100.00;97807.13;5059191;28;20128;-79
2024/02/11 06:20:55;;;;;;;2.15;1.40;;;;;;;8.61;100.00;97813.09;5050400;28;20033;-81
2024/02/11 06:23:25;;;;;;;2.58;1.70;;;;;;;8.42;100.00;97786.53;5068466;28;20051;-80
2024/02/11 06:26:02;;;;;;;2.47;1.60;;;;;;;8.58;100.00;97821.25;5062544;28;20048;-80
2024/02/11 06:28:33;;;;;;;2.35;1.42;;;;;;;8.40;100.00;97813.00;5064699;28;20041;-79
2024/02/11 06:31:02;;;;;;;2.30;1.58;;;;;;;8.24;100.00;97791.41;5063721;28;20113;-81
2024/02/11 06:33:29;;;;;;;2.75;1.77;;;;;;;8.37;100.00;97831.69;5046153;28;20048;-79
2024/02/11 06:36:01;;;;;;;2.58;1.60;;;;;;;8.41;100.00;97843.69;5065486;28;20045;-81
2024/02/11 06:38:28;;;;;;;2.63;1.60;;;;;;;8.47;100.00;97852.94;5058890;28;20056;-80
2024/02/11 06:40:57;;;;;;;2.42;1.83;;;;;;;8.20;100.00;97833.94;5062890;28;20048;-81
2024/02/11 06:43:27;;;;;;;3.13;1.58;;;;;;;7.64;100.00;97753.06;5081979;28;20045;-81
2024/02/11 06:45:57;;;;;;;3.20;1.80;;;;;;;8.36;100.00;97866.94;5072094;28;20198;-80
2024/02/11 06:48:27;;;;;;;2.22;1.65;;;;;;;7.64;100.00;97758.34;5047700;28;20213;-82
2024/02/11 06:50:58;;;;;;;2.28;1.90;;;;;;;7.64;100.00;97755.72;5064636;28;20053;-81
2024/02/11 06:53:28;;;;;;;3.50;1.90;;;;;;;8.41;100.00;97887.69;5057919;28;20053;-82
2024/02/11 06:55:59;;;;;;;3.40;1.88;;;;;;;8.40;100.00;97889.47;5068492;28;20044;-81
2024/02/11 06:58:27;;;;;;;2.70;2.10;;;;;;;8.39;100.00;97893.06;5087951;28;20048;-82
2024/02/11 07:00:56;;;;;;;5.45;2.50;;;;;;;8.41;100.00;97896.44;5074811;28;20063;-79
2024/02/11 07:03:25;;;;;;;4.40;2.40;;;;;;;7.42;100.00;97750.41;5076288;28;20102;-81
2024/02/11 07:05:54;;;;;;;4.07;2.65;;;;;;;8.36;100.00;97914.41;5059573;28;20480;-80
2024/02/11 07:08:24;;;;;;;5.35;2.78;;;;;;;7.43;100.00;97761.75;5067111;28;20041;-81
2024/02/11 07:10:52;;;;;;;3.80;2.78;;;;;;;7.83;100.00;97841.22;5090149;28;20114;-81
2024/02/11 07:13:20;;;;;;;6.55;3.08;;;;;;;7.32;100.00;97762.59;5077692;28;20040;-80
2024/02/11 07:15:48;;;;;;;4.43;2.95;;;;;;;8.28;100.00;97926.47;5081697;28;20045;-78
2024/02/11 07:18:17;;;;;;;6.20;3.00;;;;;;;8.22;100.00;97940.97;5080281;28;20048;-80
2024/02/11 07:20:45;;;;;;;4.88;3.05;;;;;;;8.21;100.00;97936.63;5072085;28;20052;-81
2024/02/11 07:23:13;;;;;;;7.10;3.38;;;;;;;8.29;100.00;97942.19;5098472;28;20048;-79
2024/02/11 07:25:42;;;;;;;5.47;3.63;;;;;;;7.91;100.00;97886.25;5088887;28;20057;-81
2024/02/11 07:28:10;;;;;;;5.35;3.88;;;;;;;7.92;100.00;97883.50;5081743;28;20063;-80
2024/02/11 07:30:42;;;;;;;8.63;3.88;;;;;;;7.56;100.00;97829.19;5082730;28;20092;-79
2024/02/11 07:33:10;;;;;;;6.15;3.97;;;;;;;8.30;100.00;97956.22;5082816;28;20155;-82
2024/02/11 07:35:40;;;;;;;9.65;4.25;;;;;;;7.52;100.00;97864.63;5089222;28;20124;-81
2024/02/11 07:38:10;;;;;;;5.20;4.25;;;;;;;7.83;100.00;97899.19;5075108;28;20040;-84
2024/02/11 07:40:37;;;;;;;6.32;4.78;;;;;;;6.13;100.00;97597.09;5069183;28;20033;-83
2024/02/11 07:43:06;;;;;;;6.72;4.63;;;;;;;8.26;100.00;97938.94;5067731;28;20037;-83
2024/02/11 07:45:34;;;;;;;6.53;4.90;;;;;;;8.47;100.00;97968.97;5065891;28;20041;-82
2024/02/11 07:48:03;;;;;;;7.18;4.45;;;;;;;8.04;100.00;97906.28;5073230;28;20049;-83
2024/02/11 07:50:34;;;;;;;7.28;4.65;;;;;;;8.48;100.00;97975.94;5101738;28;20051;-81
2024/02/11 07:53:05;;;;;;;9.45;5.05;;;;;;;8.48;100.00;97981.22;5098481;28;20059;-83
2024/02/11 07:55:34;;;;;;;10.02;5.55;;;;;;;8.51;100.00;97985.38;5081366;28;20033;-81
2024/02/11 07:58:02;;;;;;;11.27;5.57;;;;;;;7.73;100.00;97856.88;5077447;28;20044;-81
2024/02/11 08:00:31;;;;;;;11.13;6.28;;;;;;;7.72;100.00;97847.28;5072430;28;20074;-81
2024/02/11 08:02:59;;;;;;;9.57;5.85;;;;;;;8.31;100.00;97934.16;5070720;28;20127;-80
2024/02/11 08:05:27;;;;;;;8.73;5.90;;;;;;;7.83;100.00;97849.13;5083895;28;20041;-80
2024/02/11 08:07:57;;;;;;;13.35;6.68;;;;;;;8.40;100.00;97950.13;5065705;28;20048;-81
2024/02/11 08:10:27;;;;;;;;;;;;;;;8.62;100.00;97991.53;5086912;28;20112;-84
2024/02/11 08:12:55;;;;;;;11.45;6.80;;;;;;;8.20;100.00;97926.22;5083084;28;19925;-81
2024/02/11 08:15:23;;;;;;;13.40;7.25;;;;;;;8.61;100.00;97997.78;5084526;28;20041;-81
2024/02/11 08:17:51;;;;;;;11.63;7.18;;;;;;;8.71;100.00;98011.06;5080584;28;20064;-81
2024/02/11 08:20:23;;;;;;;11.48;7.22;;;;;;;8.59;100.00;97978.56;5070804;28;20049;-81
2024/02/11 08:22:52;;;;;;;15.48;8.20;;;;;;;8.61;100.00;97979.31;5059225;28;20037;-80
2024/02/11 08:25:21;;;;;;;12.77;7.85;;;;;;;8.70;100.00;98004.97;5063883;28;20080;-79
2024/02/11 08:27:50;;;;;;;14.30;8.45;;;;;;;8.36;100.00;97971.56;5072213;28;20453;-80
2024/02/11 08:30:20;;;;;;;15.27;9.25;;;;;;;8.32;100.00;97978.06;5073573;28;20048;-81
2024/02/11 08:32:51;;;;;;;15.02;9.05;;;;;;;8.12;100.00;97947.06;5077228;28;20522;-82
2024/02/11 08:35:20;;;;;;;15.48;9.05;;;;;;;8.28;100.00;97969.50;5066345;28;20059;-80
2024/02/11 08:37:49;;;;;;;20.80;10.10;;;;;;;8.33;100.00;97990.28;5051368;28;20068;-80
2024/02/11 08:40:17;;;;;;;19.88;10.15;;;;;;;8.56;100.00;98010.47;5069058;28;20061;-79
2024/02/11 08:42:46;;;;;;;17.48;9.32;;;;;;;8.57;100.00;98014.78;5063264;28;20585;-79
2024/02/11 08:45:16;;;;;;;14.93;9.27;;;;;;;8.55;100.00;98018.50;5065757;28;20045;-79
2024/02/11 08:47:44;;;;;;;16.98;8.95;;;;;;;8.61;100.00;98018.88;5054851;28;20044;-80
2024/02/11 08:50:14;;;;;;;19.50;10.13;;;;;;;8.64;100.00;98021.28;5051102;28;20075;-78
2024/02/11 08:52:43;;;;;;;14.98;8.57;;;;;;;8.57;100.00;98032.41;5072061;28;20142;-78
2024/02/11 08:55:11;;;;;;;16.95;8.38;;;;;;;7.60;100.00;97885.94;5076702;28;20048;-80
2024/02/11 08:57:39;;;;;;;15.35;10.00;;;;;;;8.51;100.00;98033.69;5064923;28;20057;-78
2024/02/11 09:00:14;;;;;;;17.45;8.73;;;;;;;8.57;100.00;98029.78;5064581;28;20041;-78
2024/02/11 09:02:44;;;;;;;18.67;8.73;;;;;;;8.64;100.00;98023.91;5052403;28;20051;-79
2024/02/11 09:05:12;;;;;;;16.48;9.43;;;;;;;8.66;100.00;98021.97;5100637;28;20040;-77
2024/02/11 09:07:42;;;;;;;16.73;9.23;;;;;;;7.94;100.00;97910.59;5076057;28;20052;-76
2024/02/11 09:10:13;;;;;;;18.48;9.98;;;;;;;8.63;100.00;98032.78;5060516;28;20067;-81
2024/02/11 09:12:42;;;;;;;14.50;9.77;;;;;;;8.63;100.00;98026.66;5052551;28;20048;-79
2024/02/11 09:15:13;;;;;;;20.00;9.70;;;;;;;8.66;100.00;98031.69;5069606;28;20071;-77
2024/02/11 09:17:45;;;;;;;17.27;9.60;;;;;;;8.67;100.00;98033.38;5060777;28;21030;-79
2024/02/11 09:20:14;;;;;;;19.17;10.45;;;;;;;8.53;100.00;98010.69;5063138;28;20165;-79
2024/02/11 09:22:42;;;;;;;16.40;9.63;;;;;;;8.67;100.00;98034.22;5078263;28;20037;-78
2024/02/11 09:25:11;;;;;;;20.35;11.02;;;;;;;8.72;100.00;98029.44;5077264;28;20052;-80
2024/02/11 09:27:42;;;;;;;20.55;10.20;;;;;;;8.90;100.00;98034.25;5044591;28;20057;-79
2024/02/11 09:30:12;;;;;;;18.50;10.95;;;;;;;8.75;100.00;97981.72;5064059;28;20058;-77
2024/02/11 09:32:40;;;;;;;18.00;10.27;;;;;;;9.09;100.00;98037.16;5063598;28;20037;-77
2024/02/11 09:35:13;;;;;;;13.13;9.50;;;;;;;8.87;100.00;98013.38;5064548;28;20113;-78
2024/02/11 09:37:44;;;;;;;20.02;10.70;;;;;;;9.11;100.00;98045.78;5047151;28;20431;-78
2024/02/11 09:40:15;;;;;;;17.05;10.35;;;;;;;9.13;100.00;98041.19;5080324;28;20506;-77
2024/02/11 09:42:44;;;;;;;14.57;9.82;;;;;;;9.14;100.00;98042.88;5064858;28;20040;-79
2024/02/11 09:45:16;;;;;;;15.43;9.40;;;;;;;9.22;100.00;98045.78;5065141;28;20072;-79
2024/02/11 09:47:49;;;;;;;16.33;10.13;;;;;;;8.88;100.00;98010.63;5063477;28;20055;-78
2024/02/11 09:50:20;;;;;;;15.18;9.75;;;;;;;9.25;100.00;98044.69;5063985;28;20052;-81
2024/02/11 09:52:50;;;;;;;12.65;8.95;;;;;;;9.28;100.00;98061.16;5068626;28;20037;-78
2024/02/11 09:55:23;;;;;;;15.18;9.52;;;;;;;9.26;100.00;98059.59;5082036;28;20052;-79
2024/02/11 09:57:51;;;;;;;14.95;9.68;;;;;;;8.87;100.00;98021.28;5071288;28;20060;-77
2024/02/11 10:00:20;;;;;;;15.40;9.98;;;;;;;8.90;100.00;98013.13;5071613;28;20051;-79
2024/02/11 10:02:50;;;;;;;16.90;9.43;;;;;;;9.04;100.00;98047.22;5070590;28;20044;-80
2024/02/11 10:05:24;;;;;;;15.80;9.77;;;;;;;9.08;100.00;98069.78;5098720;28;20025;-77
2024/02/11 10:07:55;;;;;;;17.30;9.02;;;;;;;9.06;100.00;98076.97;5086250;28;20055;-77
2024/02/11 10:10:24;;;;;;;16.30;9.18;;;;;;;9.05;100.00;98077.94;5093027;28;20186;-76
2024/02/11 10:12:52;;;;;;;13.40;8.60;;;;;;;9.05;100.00;98064.72;5070812;28;20033;-76
2024/02/11 10:15:21;;;;;;;15.35;9.40;;;;;;;9.28;100.00;98082.28;5067182;28;20552;-78
2024/02/11 10:17:50;;;;;;;16.02;9.50;;;;;;;9.29;100.00;98083.94;5056239;28;20045;-78
2024/02/11 10:20:22;;;;;;;16.33;9.07;;;;;;;8.92;100.00;98042.91;5069918;28;20071;-78
2024/02/11 10:22:50;;;;;;;19.48;8.48;;;;;;;9.07;100.00;98094.50;5068851;28;20033;-79
2024/02/11 10:25:22;;;;;;;12.40;8.20;;;;;;;9.19;100.00;98106.75;5063742;28;20032;-78
2024/02/11 10:27:52;;;;;;;13.38;8.30;;;;;;;9.20;100.00;98095.22;5067030;28;20063;-77
2024/02/11 10:30:21;;;;;;;18.15;8.55;;;;;;;9.36;100.00;98106.28;5034183;28;20580;-78
2024/02/11 10:32:50;;;;;;;12.32;7.53;;;;;;;8.87;100.00;98037.97;5087640;28;20044;-77
2024/02/11 10:35:20;;;;;;;11.95;7.95;;;;;;;9.35;100.00;98099.31;5044036;28;20048;-78
2024/02/11 10:37:48;;;;;;;15.35;6.80;;;;;;;9.40;100.00;98110.38;5067360;28;20197;-78
2024/02/11 10:40:23;;;;;;;15.45;7.70;;;;;;;9.34;100.00;98107.34;5065118;28;20049;-77
2024/02/11 10:42:51;;;;;;;11.98;8.57;;;;;;;9.25;100.00;98106.28;5081667;28;20144;-80
2024/02/11 10:45:19;;;;;;;11.82;7.70;;;;;;;9.11;100.00;98107.34;5052768;28;20131;-77
2024/02/11 10:47:47;;;;;;;14.35;8.57;;;;;;;8.74;100.00;98059.19;5066699;28;20044;-78
2024/02/11 10:50:17;;;;;;;12.43;8.00;;;;;;;8.73;100.00;98060.13;5069491;28;20048;-78
2024/02/11 10:52:50;;;;;;;12.48;7.78;;;;;;;8.86;100.00;98065.31;5040299;28;20041;-76
2024/02/11 10:55:22;;;;;;;8.75;6.25;;;;;;;9.05;100.00;98091.97;5065552;28;20101;-79
2024/02/11 10:57:53;;;;;;;9.50;6.55;;;;;;;9.20;100.00;98105.78;5065744;28;20036;-78
2024/02/11 11:00:22;;;;;;;10.40;5.97;;;;;;;9.13;100.00;98092.22;5066954;28;20124;-78
2024/02/11 11:02:53;;;;;;;9.65;6.13;;;;;;;9.31;100.00;98104.94;5061080;28;20060;-76
2024/02/11 11:05:24;;;;;;;8.30;5.82;;;;;;;9.39;100.00;98106.03;5066322;28;20044;-77
2024/02/11 11:07:57;;;;;;;12.15;7.05;;;;;;;9.45;100.00;98100.25;5063655;28;20048;-76
2024/02/11 11:10:29;;;;;;;8.15;4.90;;;;;;;9.40;100.00;98061.97;5063574;28;20090;-78
2024/02/11 11:12:58;;;;;;;7.60;5.55;;;;;;;9.77;100.00;98100.34;5062431;28;20069;-77
2024/02/11 11:15:32;;;;;;;8.55;4.63;;;;;;;9.87;100.00;98105.75;5059408;28;20622;-78
2024/02/11 11:18:02;;;;;;;6.82;4.90;;;;;;;9.92;100.00;98122.06;5069533;28;20055;-77
2024/02/11 11:20:33;;;;;;;6.37;4.63;;;;;;;9.62;100.00;98088.34;5052678;28;20041;-77
2024/02/11 11:23:06;;;;;;;7.55;5.30;;;;;;;9.57;100.00;98108.19;5067154;28;20181;-78
2024/02/11 11:25:36;;;;;;;6.97;4.35;;;;;;;9.06;100.00;98055.84;5076322;28;20053;-78
2024/02/11 11:28:28;;;;;;;6.45;4.32;;;;;;;9.16;100.00;98088.50;5058106;28;20411;-76
2024/02/11 11:30:56;;;;;;;8.80;4.18;;;;;;;9.19;100.00;98113.81;5078084;28;20041;-78
2024/02/11 11:33:27;;;;;;;6.43;4.47;;;;;;;9.09;100.00;98111.06;5079267;28;20150;-79
2024/02/11 11:36:01;;;;;;;5.88;4.50;;;;;;;8.54;100.00;98012.38;5077600;28;20043;-78
2024/02/11 11:38:33;;;;;;;6.20;4.78;;;;;;;9.23;100.00;98113.47;5074634;28;20898;-77